sensor_id;sensor_type;location;lat;lon;timestamp;P1;durP1;ratioP1;P2;durP2;ratioP2
81967;SDS011;72395;56.880;60.614;2023-11-19T00:00:09;3.58;;;1.63;;
81967;SDS011;72395;56.880;60.614;2023-11-19T00:02:39;6.72;;;2.28;;
81967;SDS011;72395;56.880;60.614;2023-11-19T00:05:07;6.45;;;2.85;;
81967;SDS011;72395;56.880;60.614;2023-11-19T00:07:37;6.47;;;2.03;;
81967;SDS011;72395;56.880;60.614;2023-11-19T00:10:08;3.72;;;1.70;;
81967;SDS011;72395;56.880;60.614;2023-11-19T00:12:37;3.67;;;2.15;;
81967;SDS011;72395;56.880;60.614;2023-11-19T00:15:11;5.55;;;1.88;;
81967;SDS011;72395;56.880;60.614;2023-11-19T00:17:38;3.42;;;1.45;;
81967;SDS011;72395;56.880;60.614;2023-11-19T00:20:19;4.05;;;1.48;;
81967;SDS011;72395;56.880;60.614;2023-11-19T00:22:50;3.05;;;1.42;;
81967;SDS011;72395;56.880;60.614;2023-11-19T00:25:17;4.13;;;2.13;;
81967;SDS011;72395;56.880;60.614;2023-11-19T00:27:45;2.70;;;1.27;;
81967;SDS011;72395;56.880;60.614;2023-11-19T00:30:12;2.42;;;1.38;;
81967;SDS011;72395;56.880;60.614;2023-11-19T00:32:40;4.97;;;1.42;;
81967;SDS011;72395;56.880;60.614;2023-11-19T00:35:07;5.05;;;1.90;;
81967;SDS011;72395;56.880;60.614;2023-11-19T00:37:36;3.85;;;1.70;;
81967;SDS011;72395;56.880;60.614;2023-11-19T00:40:03;2.47;;;1.48;;
81967;SDS011;72395;56.880;60.614;2023-11-19T00:42:31;2.97;;;1.10;;
81967;SDS011;72395;56.880;60.614;2023-11-19T00:44:58;6.50;;;1.20;;
81967;SDS011;72395;56.880;60.614;2023-11-19T00:47:25;1.92;;;0.93;;
81967;SDS011;72395;56.880;60.614;2023-11-19T00:49:51;2.83;;;1.05;;
81967;SDS011;72395;56.880;60.614;2023-11-19T00:52:18;4.55;;;1.48;;
81967;SDS011;72395;56.880;60.614;2023-11-19T00:54:45;2.92;;;1.13;;
81967;SDS011;72395;56.880;60.614;2023-11-19T00:57:12;1.60;;;1.00;;
81967;SDS011;72395;56.880;60.614;2023-11-19T00:59:41;1.20;;;0.90;;
81967;SDS011;72395;56.880;60.614;2023-11-19T01:02:08;3.30;;;1.30;;
81967;SDS011;72395;56.880;60.614;2023-11-19T01:04:35;2.95;;;0.80;;
81967;SDS011;72395;56.880;60.614;2023-11-19T01:07:03;1.65;;;1.05;;
81967;SDS011;72395;56.880;60.614;2023-11-19T01:09:30;2.25;;;1.05;;
81967;SDS011;72395;56.880;60.614;2023-11-19T01:12:02;1.88;;;0.95;;
81967;SDS011;72395;56.880;60.614;2023-11-19T01:14:29;2.17;;;1.00;;
81967;SDS011;72395;56.880;60.614;2023-11-19T01:16:57;1.85;;;0.80;;
81967;SDS011;72395;56.880;60.614;2023-11-19T01:19:24;7.72;;;1.13;;
81967;SDS011;72395;56.880;60.614;2023-11-19T01:21:51;6.07;;;1.00;;
81967;SDS011;72395;56.880;60.614;2023-11-19T01:24:17;1.65;;;0.80;;
81967;SDS011;72395;56.880;60.614;2023-11-19T01:26:44;3.88;;;0.88;;
81967;SDS011;72395;56.880;60.614;2023-11-19T01:29:12;4.57;;;1.00;;
81967;SDS011;72395;56.880;60.614;2023-11-19T01:31:40;4.57;;;1.08;;
81967;SDS011;72395;56.880;60.614;2023-11-19T01:34:08;2.55;;;0.63;;
81967;SDS011;72395;56.880;60.614;2023-11-19T01:36:35;4.85;;;1.10;;
81967;SDS011;72395;56.880;60.614;2023-11-19T01:39:02;3.78;;;1.00;;
81967;SDS011;72395;56.880;60.614;2023-11-19T01:41:34;3.20;;;1.00;;
81967;SDS011;72395;56.880;60.614;2023-11-19T01:44:02;2.40;;;0.60;;
81967;SDS011;72395;56.880;60.614;2023-11-19T01:46:29;1.80;;;0.90;;
81967;SDS011;72395;56.880;60.614;2023-11-19T01:48:58;1.00;;;0.55;;
81967;SDS011;72395;56.880;60.614;2023-11-19T01:51:26;1.90;;;0.77;;
81967;SDS011;72395;56.880;60.614;2023-11-19T01:53:54;4.13;;;0.90;;
81967;SDS011;72395;56.880;60.614;2023-11-19T01:56:22;4.10;;;0.80;;
81967;SDS011;72395;56.880;60.614;2023-11-19T01:58:50;1.45;;;0.82;;
81967;SDS011;72395;56.880;60.614;2023-11-19T02:01:20;3.22;;;0.93;;
81967;SDS011;72395;56.880;60.614;2023-11-19T02:03:47;5.05;;;0.90;;
81967;SDS011;72395;56.880;60.614;2023-11-19T02:06:14;1.50;;;0.93;;
81967;SDS011;72395;56.880;60.614;2023-11-19T02:08:41;1.08;;;0.80;;
81967;SDS011;72395;56.880;60.614;2023-11-19T02:11:09;1.70;;;0.82;;
81967;SDS011;72395;56.880;60.614;2023-11-19T02:13:37;1.23;;;0.75;;
81967;SDS011;72395;56.880;60.614;2023-11-19T02:16:04;1.42;;;0.85;;
81967;SDS011;72395;56.880;60.614;2023-11-19T02:18:33;2.67;;;0.63;;
81967;SDS011;72395;56.880;60.614;2023-11-19T02:21:00;2.75;;;1.02;;
81967;SDS011;72395;56.880;60.614;2023-11-19T02:23:27;1.08;;;0.70;;
81967;SDS011;72395;56.880;60.614;2023-11-19T02:25:59;1.65;;;0.57;;
81967;SDS011;72395;56.880;60.614;2023-11-19T02:28:29;1.30;;;0.80;;
81967;SDS011;72395;56.880;60.614;2023-11-19T02:30:56;2.22;;;0.85;;
81967;SDS011;72395;56.880;60.614;2023-11-19T02:33:23;1.88;;;1.15;;
81967;SDS011;72395;56.880;60.614;2023-11-19T02:35:50;1.00;;;0.65;;
81967;SDS011;72395;56.880;60.614;2023-11-19T02:38:17;2.08;;;0.85;;
81967;SDS011;72395;56.880;60.614;2023-11-19T02:40:44;1.95;;;1.10;;
81967;SDS011;72395;56.880;60.614;2023-11-19T02:43:11;1.70;;;1.10;;
81967;SDS011;72395;56.880;60.614;2023-11-19T02:45:37;1.20;;;0.75;;
81967;SDS011;72395;56.880;60.614;2023-11-19T02:48:04;1.80;;;1.30;;
81967;SDS011;72395;56.880;60.614;2023-11-19T02:50:32;1.27;;;1.00;;
81967;SDS011;72395;56.880;60.614;2023-11-19T02:52:59;2.22;;;0.95;;
81967;SDS011;72395;56.880;60.614;2023-11-19T02:55:27;3.25;;;1.15;;
81967;SDS011;72395;56.880;60.614;2023-11-19T02:57:57;1.20;;;1.00;;
81967;SDS011;72395;56.880;60.614;2023-11-19T03:00:25;4.13;;;1.20;;
81967;SDS011;72395;56.880;60.614;2023-11-19T03:03:03;1.48;;;1.05;;
81967;SDS011;72395;56.880;60.614;2023-11-19T03:05:44;2.40;;;1.20;;
81967;SDS011;72395;56.880;60.614;2023-11-19T03:08:11;6.15;;;1.73;;
81967;SDS011;72395;56.880;60.614;2023-11-19T03:10:38;2.05;;;1.08;;
81967;SDS011;72395;56.880;60.614;2023-11-19T03:13:05;1.50;;;0.70;;
81967;SDS011;72395;56.880;60.614;2023-11-19T03:15:37;1.58;;;0.95;;
81967;SDS011;72395;56.880;60.614;2023-11-19T03:18:04;1.52;;;0.85;;
81967;SDS011;72395;56.880;60.614;2023-11-19T03:20:31;4.50;;;1.00;;
81967;SDS011;72395;56.880;60.614;2023-11-19T03:22:58;1.77;;;0.93;;
81967;SDS011;72395;56.880;60.614;2023-11-19T03:25:25;2.83;;;0.90;;
81967;SDS011;72395;56.880;60.614;2023-11-19T03:27:53;3.35;;;0.98;;
81967;SDS011;72395;56.880;60.614;2023-11-19T03:30:19;1.40;;;0.82;;
81967;SDS011;72395;56.880;60.614;2023-11-19T03:32:47;2.70;;;0.82;;
81967;SDS011;72395;56.880;60.614;2023-11-19T03:35:13;1.30;;;0.77;;
81967;SDS011;72395;56.880;60.614;2023-11-19T03:37:40;0.30;;;0.30;;
81967;SDS011;72395;56.880;60.614;2023-11-19T03:40:07;1.13;;;0.75;;
81967;SDS011;72395;56.880;60.614;2023-11-19T03:42:34;4.07;;;1.10;;
81967;SDS011;72395;56.880;60.614;2023-11-19T03:45:01;1.52;;;0.82;;
81967;SDS011;72395;56.880;60.614;2023-11-19T03:47:30;2.03;;;0.73;;
81967;SDS011;72395;56.880;60.614;2023-11-19T03:49:56;2.70;;;1.20;;
81967;SDS011;72395;56.880;60.614;2023-11-19T03:52:24;1.05;;;0.80;;
81967;SDS011;72395;56.880;60.614;2023-11-19T03:54:53;2.35;;;0.80;;
81967;SDS011;72395;56.880;60.614;2023-11-19T03:57:21;7.63;;;0.80;;
81967;SDS011;72395;56.880;60.614;2023-11-19T03:59:48;1.48;;;0.70;;
81967;SDS011;72395;56.880;60.614;2023-11-19T04:02:15;3.35;;;1.15;;
81967;SDS011;72395;56.880;60.614;2023-11-19T04:04:42;0.50;;;0.50;;
81967;SDS011;72395;56.880;60.614;2023-11-19T04:07:09;1.55;;;0.82;;
81967;SDS011;72395;56.880;60.614;2023-11-19T04:09:35;1.75;;;1.00;;
81967;SDS011;72395;56.880;60.614;2023-11-19T04:12:04;6.88;;;1.30;;
81967;SDS011;72395;56.880;60.614;2023-11-19T04:14:30;2.13;;;1.13;;
81967;SDS011;72395;56.880;60.614;2023-11-19T04:16:57;2.67;;;1.00;;
81967;SDS011;72395;56.880;60.614;2023-11-19T04:19:24;1.42;;;0.88;;
81967;SDS011;72395;56.880;60.614;2023-11-19T04:21:51;3.40;;;1.45;;
81967;SDS011;72395;56.880;60.614;2023-11-19T04:24:18;4.35;;;1.05;;
81967;SDS011;72395;56.880;60.614;2023-11-19T04:26:45;10.25;;;1.60;;
81967;SDS011;72395;56.880;60.614;2023-11-19T04:29:13;2.90;;;1.10;;
81967;SDS011;72395;56.880;60.614;2023-11-19T04:31:41;2.72;;;1.52;;
81967;SDS011;72395;56.880;60.614;2023-11-19T04:34:08;1.85;;;1.35;;
81967;SDS011;72395;56.880;60.614;2023-11-19T04:36:34;2.38;;;1.30;;
81967;SDS011;72395;56.880;60.614;2023-11-19T04:39:01;5.43;;;1.67;;
81967;SDS011;72395;56.880;60.614;2023-11-19T04:41:28;2.17;;;1.27;;
81967;SDS011;72395;56.880;60.614;2023-11-19T04:43:55;3.55;;;2.15;;
81967;SDS011;72395;56.880;60.614;2023-11-19T04:46:22;4.93;;;1.35;;
81967;SDS011;72395;56.880;60.614;2023-11-19T04:48:50;7.95;;;1.98;;
81967;SDS011;72395;56.880;60.614;2023-11-19T04:51:17;2.80;;;1.27;;
81967;SDS011;72395;56.880;60.614;2023-11-19T04:53:43;6.00;;;0.77;;
81967;SDS011;72395;56.880;60.614;2023-11-19T04:56:11;1.75;;;1.10;;
81967;SDS011;72395;56.880;60.614;2023-11-19T04:58:39;12.35;;;1.55;;
81967;SDS011;72395;56.880;60.614;2023-11-19T05:01:06;2.60;;;1.58;;
81967;SDS011;72395;56.880;60.614;2023-11-19T05:03:32;1.70;;;0.88;;
81967;SDS011;72395;56.880;60.614;2023-11-19T05:05:59;1.35;;;0.90;;
81967;SDS011;72395;56.880;60.614;2023-11-19T05:08:26;2.00;;;1.05;;
81967;SDS011;72395;56.880;60.614;2023-11-19T05:10:53;6.03;;;1.45;;
81967;SDS011;72395;56.880;60.614;2023-11-19T05:13:20;0.95;;;0.80;;
81967;SDS011;72395;56.880;60.614;2023-11-19T05:15:46;3.42;;;1.75;;
81967;SDS011;72395;56.880;60.614;2023-11-19T05:18:13;3.13;;;1.30;;
81967;SDS011;72395;56.880;60.614;2023-11-19T05:20:39;1.33;;;0.80;;
81967;SDS011;72395;56.880;60.614;2023-11-19T05:23:06;13.50;;;1.35;;
81967;SDS011;72395;56.880;60.614;2023-11-19T05:25:33;2.35;;;1.45;;
81967;SDS011;72395;56.880;60.614;2023-11-19T05:28:00;4.47;;;1.27;;
81967;SDS011;72395;56.880;60.614;2023-11-19T05:30:26;3.38;;;0.95;;
81967;SDS011;72395;56.880;60.614;2023-11-19T05:32:53;1.45;;;0.70;;
81967;SDS011;72395;56.880;60.614;2023-11-19T05:35:19;4.93;;;0.60;;
81967;SDS011;72395;56.880;60.614;2023-11-19T05:37:46;1.42;;;0.52;;
81967;SDS011;72395;56.880;60.614;2023-11-19T05:40:13;1.23;;;0.90;;
81967;SDS011;72395;56.880;60.614;2023-11-19T05:42:43;1.95;;;0.50;;
81967;SDS011;72395;56.880;60.614;2023-11-19T05:45:11;1.15;;;0.73;;
81967;SDS011;72395;56.880;60.614;2023-11-19T05:47:38;1.25;;;0.75;;
81967;SDS011;72395;56.880;60.614;2023-11-19T05:50:05;2.83;;;1.08;;
81967;SDS011;72395;56.880;60.614;2023-11-19T05:52:32;0.68;;;0.68;;
81967;SDS011;72395;56.880;60.614;2023-11-19T05:55:02;6.25;;;1.05;;
81967;SDS011;72395;56.880;60.614;2023-11-19T05:57:36;4.75;;;1.55;;
81967;SDS011;72395;56.880;60.614;2023-11-19T06:00:03;4.35;;;1.20;;
81967;SDS011;72395;56.880;60.614;2023-11-19T06:02:37;2.00;;;0.88;;
81967;SDS011;72395;56.880;60.614;2023-11-19T06:05:04;8.13;;;1.42;;
81967;SDS011;72395;56.880;60.614;2023-11-19T06:07:33;1.88;;;1.00;;
81967;SDS011;72395;56.880;60.614;2023-11-19T06:10:01;4.65;;;1.42;;
81967;SDS011;72395;56.880;60.614;2023-11-19T06:12:29;1.35;;;0.73;;
81967;SDS011;72395;56.880;60.614;2023-11-19T06:14:55;9.13;;;1.73;;
81967;SDS011;72395;56.880;60.614;2023-11-19T06:17:23;5.95;;;0.88;;
81967;SDS011;72395;56.880;60.614;2023-11-19T06:19:49;1.75;;;0.85;;
81967;SDS011;72395;56.880;60.614;2023-11-19T06:22:17;4.53;;;1.50;;
81967;SDS011;72395;56.880;60.614;2023-11-19T06:24:43;2.10;;;0.77;;
81967;SDS011;72395;56.880;60.614;2023-11-19T06:27:10;2.88;;;1.33;;
81967;SDS011;72395;56.880;60.614;2023-11-19T06:29:37;2.97;;;1.33;;
81967;SDS011;72395;56.880;60.614;2023-11-19T06:32:04;3.17;;;0.90;;
81967;SDS011;72395;56.880;60.614;2023-11-19T06:34:32;4.95;;;0.85;;
81967;SDS011;72395;56.880;60.614;2023-11-19T06:36:59;10.65;;;1.35;;
81967;SDS011;72395;56.880;60.614;2023-11-19T06:39:25;3.53;;;1.27;;
81967;SDS011;72395;56.880;60.614;2023-11-19T06:41:53;2.67;;;1.25;;
81967;SDS011;72395;56.880;60.614;2023-11-19T06:44:20;1.80;;;1.10;;
81967;SDS011;72395;56.880;60.614;2023-11-19T06:46:48;8.40;;;1.65;;
81967;SDS011;72395;56.880;60.614;2023-11-19T06:49:14;5.20;;;1.40;;
81967;SDS011;72395;56.880;60.614;2023-11-19T06:51:42;8.65;;;1.00;;
81967;SDS011;72395;56.880;60.614;2023-11-19T06:54:10;12.43;;;1.80;;
81967;SDS011;72395;56.880;60.614;2023-11-19T06:56:36;11.63;;;1.52;;
81967;SDS011;72395;56.880;60.614;2023-11-19T06:59:03;2.92;;;1.20;;
81967;SDS011;72395;56.880;60.614;2023-11-19T07:01:34;2.67;;;1.23;;
81967;SDS011;72395;56.880;60.614;2023-11-19T07:04:04;9.35;;;1.48;;
81967;SDS011;72395;56.880;60.614;2023-11-19T07:06:35;0.82;;;0.70;;
81967;SDS011;72395;56.880;60.614;2023-11-19T07:09:05;6.53;;;1.60;;
81967;SDS011;72395;56.880;60.614;2023-11-19T07:11:41;1.38;;;0.82;;
81967;SDS011;72395;56.880;60.614;2023-11-19T07:14:08;1.70;;;1.13;;
81967;SDS011;72395;56.880;60.614;2023-11-19T07:16:35;1.95;;;1.75;;
81967;SDS011;72395;56.880;60.614;2023-11-19T07:19:05;4.72;;;1.42;;
81967;SDS011;72395;56.880;60.614;2023-11-19T07:21:32;6.15;;;0.98;;
81967;SDS011;72395;56.880;60.614;2023-11-19T07:23:59;5.97;;;1.40;;
81967;SDS011;72395;56.880;60.614;2023-11-19T07:26:26;9.20;;;1.23;;
81967;SDS011;72395;56.880;60.614;2023-11-19T07:28:53;3.38;;;1.48;;
81967;SDS011;72395;56.880;60.614;2023-11-19T07:31:19;4.57;;;1.15;;
81967;SDS011;72395;56.880;60.614;2023-11-19T07:33:46;1.38;;;1.02;;
81967;SDS011;72395;56.880;60.614;2023-11-19T07:36:14;2.08;;;0.63;;
81967;SDS011;72395;56.880;60.614;2023-11-19T07:38:40;2.03;;;0.90;;
81967;SDS011;72395;56.880;60.614;2023-11-19T07:41:07;1.48;;;0.80;;
81967;SDS011;72395;56.880;60.614;2023-11-19T07:43:39;5.00;;;1.05;;
81967;SDS011;72395;56.880;60.614;2023-11-19T07:46:11;9.88;;;1.40;;
81967;SDS011;72395;56.880;60.614;2023-11-19T07:48:41;2.65;;;1.15;;
81967;SDS011;72395;56.880;60.614;2023-11-19T07:51:10;2.10;;;1.10;;
81967;SDS011;72395;56.880;60.614;2023-11-19T07:53:37;8.20;;;1.25;;
81967;SDS011;72395;56.880;60.614;2023-11-19T07:56:05;2.28;;;0.95;;
81967;SDS011;72395;56.880;60.614;2023-11-19T07:58:32;1.83;;;1.17;;
81967;SDS011;72395;56.880;60.614;2023-11-19T08:01:00;3.80;;;1.42;;
81967;SDS011;72395;56.880;60.614;2023-11-19T08:03:28;4.40;;;1.10;;
81967;SDS011;72395;56.880;60.614;2023-11-19T08:05:56;3.83;;;1.23;;
81967;SDS011;72395;56.880;60.614;2023-11-19T08:08:25;11.27;;;1.92;;
81967;SDS011;72395;56.880;60.614;2023-11-19T08:10:52;2.17;;;1.30;;
81967;SDS011;72395;56.880;60.614;2023-11-19T08:13:19;3.78;;;0.93;;
81967;SDS011;72395;56.880;60.614;2023-11-19T08:15:47;5.57;;;1.40;;
81967;SDS011;72395;56.880;60.614;2023-11-19T08:18:14;4.00;;;1.67;;
81967;SDS011;72395;56.880;60.614;2023-11-19T08:20:40;2.00;;;1.05;;
81967;SDS011;72395;56.880;60.614;2023-11-19T08:23:11;4.47;;;1.20;;
81967;SDS011;72395;56.880;60.614;2023-11-19T08:25:37;2.47;;;1.30;;
81967;SDS011;72395;56.880;60.614;2023-11-19T08:28:05;5.10;;;0.80;;
81967;SDS011;72395;56.880;60.614;2023-11-19T08:30:31;4.97;;;1.30;;
81967;SDS011;72395;56.880;60.614;2023-11-19T08:32:58;9.85;;;1.60;;
81967;SDS011;72395;56.880;60.614;2023-11-19T08:35:28;3.83;;;1.42;;
81967;SDS011;72395;56.880;60.614;2023-11-19T08:37:56;4.53;;;0.85;;
81967;SDS011;72395;56.880;60.614;2023-11-19T08:40:23;1.48;;;1.02;;
81967;SDS011;72395;56.880;60.614;2023-11-19T08:42:50;1.73;;;0.95;;
81967;SDS011;72395;56.880;60.614;2023-11-19T08:45:16;4.68;;;2.03;;
81967;SDS011;72395;56.880;60.614;2023-11-19T08:47:43;1.48;;;0.98;;
81967;SDS011;72395;56.880;60.614;2023-11-19T08:50:11;6.95;;;1.10;;
81967;SDS011;72395;56.880;60.614;2023-11-19T08:52:38;5.63;;;1.35;;
81967;SDS011;72395;56.880;60.614;2023-11-19T08:55:05;2.78;;;1.02;;
81967;SDS011;72395;56.880;60.614;2023-11-19T08:57:32;6.30;;;1.40;;
81967;SDS011;72395;56.880;60.614;2023-11-19T08:59:59;3.85;;;1.05;;
81967;SDS011;72395;56.880;60.614;2023-11-19T09:02:27;3.88;;;1.25;;
81967;SDS011;72395;56.880;60.614;2023-11-19T09:04:53;6.20;;;1.75;;
81967;SDS011;72395;56.880;60.614;2023-11-19T09:07:20;5.00;;;1.20;;
81967;SDS011;72395;56.880;60.614;2023-11-19T09:09:47;3.65;;;1.58;;
81967;SDS011;72395;56.880;60.614;2023-11-19T09:12:14;8.77;;;1.90;;
81967;SDS011;72395;56.880;60.614;2023-11-19T09:14:41;2.88;;;1.38;;
81967;SDS011;72395;56.880;60.614;2023-11-19T09:17:08;5.60;;;1.50;;
81967;SDS011;72395;56.880;60.614;2023-11-19T09:19:35;4.38;;;1.50;;
81967;SDS011;72395;56.880;60.614;2023-11-19T09:22:02;3.38;;;1.33;;
81967;SDS011;72395;56.880;60.614;2023-11-19T09:24:29;4.22;;;1.60;;
81967;SDS011;72395;56.880;60.614;2023-11-19T09:26:56;5.72;;;2.50;;
81967;SDS011;72395;56.880;60.614;2023-11-19T09:29:23;7.90;;;1.75;;
81967;SDS011;72395;56.880;60.614;2023-11-19T09:31:50;5.20;;;1.85;;
81967;SDS011;72395;56.880;60.614;2023-11-19T09:34:16;3.58;;;2.15;;
81967;SDS011;72395;56.880;60.614;2023-11-19T09:36:43;7.93;;;1.85;;
81967;SDS011;72395;56.880;60.614;2023-11-19T09:39:11;3.55;;;1.42;;
81967;SDS011;72395;56.880;60.614;2023-11-19T09:41:41;4.43;;;1.88;;
81967;SDS011;72395;56.880;60.614;2023-11-19T09:44:08;16.63;;;2.78;;
81967;SDS011;72395;56.880;60.614;2023-11-19T09:46:36;3.80;;;1.92;;
81967;SDS011;72395;56.880;60.614;2023-11-19T09:49:03;2.35;;;1.40;;
81967;SDS011;72395;56.880;60.614;2023-11-19T09:51:35;2.70;;;1.38;;
81967;SDS011;72395;56.880;60.614;2023-11-19T09:54:02;2.22;;;1.25;;
81967;SDS011;72395;56.880;60.614;2023-11-19T09:56:29;3.17;;;1.50;;
81967;SDS011;72395;56.880;60.614;2023-11-19T09:58:56;4.20;;;1.40;;
81967;SDS011;72395;56.880;60.614;2023-11-19T10:01:23;7.80;;;2.03;;
81967;SDS011;72395;56.880;60.614;2023-11-19T10:03:50;2.35;;;1.27;;
81967;SDS011;72395;56.880;60.614;2023-11-19T10:06:21;6.65;;;1.60;;
81967;SDS011;72395;56.880;60.614;2023-11-19T10:08:49;3.80;;;1.10;;
81967;SDS011;72395;56.880;60.614;2023-11-19T10:11:16;2.42;;;1.10;;
81967;SDS011;72395;56.880;60.614;2023-11-19T10:13:43;1.55;;;0.93;;
81967;SDS011;72395;56.880;60.614;2023-11-19T10:16:14;1.98;;;1.00;;
81967;SDS011;72395;56.880;60.614;2023-11-19T10:18:48;3.15;;;0.88;;
81967;SDS011;72395;56.880;60.614;2023-11-19T10:21:19;3.63;;;1.17;;
81967;SDS011;72395;56.880;60.614;2023-11-19T10:23:52;4.90;;;1.45;;
81967;SDS011;72395;56.880;60.614;2023-11-19T10:26:31;8.23;;;1.70;;
81967;SDS011;72395;56.880;60.614;2023-11-19T10:29:00;2.22;;;1.50;;
81967;SDS011;72395;56.880;60.614;2023-11-19T10:31:27;1.33;;;1.02;;
81967;SDS011;72395;56.880;60.614;2023-11-19T10:33:54;1.88;;;1.20;;
81967;SDS011;72395;56.880;60.614;2023-11-19T10:36:20;4.38;;;1.48;;
81967;SDS011;72395;56.880;60.614;2023-11-19T10:38:53;2.55;;;1.30;;
81967;SDS011;72395;56.880;60.614;2023-11-19T10:41:31;5.05;;;1.50;;
81967;SDS011;72395;56.880;60.614;2023-11-19T10:43:58;4.88;;;1.17;;
81967;SDS011;72395;56.880;60.614;2023-11-19T10:49:05;9.82;;;1.30;;
81967;SDS011;72395;56.880;60.614;2023-11-19T10:51:36;4.82;;;1.48;;
81967;SDS011;72395;56.880;60.614;2023-11-19T10:54:04;10.55;;;1.48;;
81967;SDS011;72395;56.880;60.614;2023-11-19T10:56:32;2.40;;;1.10;;
81967;SDS011;72395;56.880;60.614;2023-11-19T10:59:00;9.10;;;1.50;;
81967;SDS011;72395;56.880;60.614;2023-11-19T11:01:34;9.25;;;2.10;;
81967;SDS011;72395;56.880;60.614;2023-11-19T11:04:14;6.10;;;1.50;;
81967;SDS011;72395;56.880;60.614;2023-11-19T11:06:45;3.63;;;1.92;;
81967;SDS011;72395;56.880;60.614;2023-11-19T11:09:13;5.75;;;1.45;;
81967;SDS011;72395;56.880;60.614;2023-11-19T11:11:41;5.63;;;1.13;;
81967;SDS011;72395;56.880;60.614;2023-11-19T11:14:16;4.28;;;2.88;;
81967;SDS011;72395;56.880;60.614;2023-11-19T11:16:47;1.67;;;0.60;;
81967;SDS011;72395;56.880;60.614;2023-11-19T11:19:17;3.75;;;1.13;;
81967;SDS011;72395;56.880;60.614;2023-11-19T11:21:46;2.10;;;1.45;;
81967;SDS011;72395;56.880;60.614;2023-11-19T11:37:58;4.32;;;1.33;;
81967;SDS011;72395;56.880;60.614;2023-11-19T11:40:29;4.28;;;1.52;;
81967;SDS011;72395;56.880;60.614;2023-11-19T11:42:57;1.80;;;1.20;;
81967;SDS011;72395;56.880;60.614;2023-11-19T11:45:40;5.07;;;1.35;;
81967;SDS011;72395;56.880;60.614;2023-11-19T11:48:12;2.22;;;1.10;;
81967;SDS011;72395;56.880;60.614;2023-11-19T11:50:48;1.98;;;1.30;;
81967;SDS011;72395;56.880;60.614;2023-11-19T11:53:17;3.03;;;1.50;;
81967;SDS011;72395;56.880;60.614;2023-11-19T11:58:18;5.32;;;1.88;;
81967;SDS011;72395;56.880;60.614;2023-11-19T12:00:45;3.67;;;1.40;;
81967;SDS011;72395;56.880;60.614;2023-11-19T12:03:13;3.25;;;1.40;;
81967;SDS011;72395;56.880;60.614;2023-11-19T12:05:41;2.42;;;1.45;;
81967;SDS011;72395;56.880;60.614;2023-11-19T12:08:10;3.85;;;1.55;;
81967;SDS011;72395;56.880;60.614;2023-11-19T12:10:43;3.03;;;1.55;;
81967;SDS011;72395;56.880;60.614;2023-11-19T12:13:14;4.65;;;1.33;;
81967;SDS011;72395;56.880;60.614;2023-11-19T12:18:24;7.65;;;1.63;;
81967;SDS011;72395;56.880;60.614;2023-11-19T12:20:52;6.22;;;1.95;;
81967;SDS011;72395;56.880;60.614;2023-11-19T12:23:20;2.15;;;1.40;;
81967;SDS011;72395;56.880;60.614;2023-11-19T12:25:47;4.47;;;1.92;;
81967;SDS011;72395;56.880;60.614;2023-11-19T12:28:14;3.78;;;1.73;;
81967;SDS011;72395;56.880;60.614;2023-11-19T12:30:45;7.35;;;1.80;;
81967;SDS011;72395;56.880;60.614;2023-11-19T12:33:13;5.07;;;1.63;;
81967;SDS011;72395;56.880;60.614;2023-11-19T12:35:41;3.60;;;1.88;;
81967;SDS011;72395;56.880;60.614;2023-11-19T12:38:27;2.53;;;1.52;;
81967;SDS011;72395;56.880;60.614;2023-11-19T12:41:06;9.70;;;2.58;;
81967;SDS011;72395;56.880;60.614;2023-11-19T12:43:37;9.53;;;2.00;;
81967;SDS011;72395;56.880;60.614;2023-11-19T12:46:25;11.27;;;2.10;;
81967;SDS011;72395;56.880;60.614;2023-11-19T12:48:52;5.55;;;2.00;;
81967;SDS011;72395;56.880;60.614;2023-11-19T12:51:19;7.25;;;2.25;;
81967;SDS011;72395;56.880;60.614;2023-11-19T12:53:50;27.92;;;2.45;;
81967;SDS011;72395;56.880;60.614;2023-11-19T12:58:47;5.60;;;1.35;;
81967;SDS011;72395;56.880;60.614;2023-11-19T13:01:18;6.13;;;2.05;;
81967;SDS011;72395;56.880;60.614;2023-11-19T13:03:46;3.83;;;1.60;;
81967;SDS011;72395;56.880;60.614;2023-11-19T13:06:14;5.03;;;2.22;;
81967;SDS011;72395;56.880;60.614;2023-11-19T13:08:46;12.23;;;3.28;;
81967;SDS011;72395;56.880;60.614;2023-11-19T13:11:19;9.30;;;2.40;;
81967;SDS011;72395;56.880;60.614;2023-11-19T13:14:01;8.05;;;2.80;;
81967;SDS011;72395;56.880;60.614;2023-11-19T13:16:30;5.82;;;1.75;;
81967;SDS011;72395;56.880;60.614;2023-11-19T13:18:57;5.35;;;2.00;;
81967;SDS011;72395;56.880;60.614;2023-11-19T13:21:26;3.97;;;2.10;;
81967;SDS011;72395;56.880;60.614;2023-11-19T13:23:52;10.23;;;2.60;;
81967;SDS011;72395;56.880;60.614;2023-11-19T13:26:19;6.70;;;3.20;;
81967;SDS011;72395;56.880;60.614;2023-11-19T13:28:46;6.80;;;2.83;;
81967;SDS011;72395;56.880;60.614;2023-11-19T13:31:12;6.80;;;2.78;;
81967;SDS011;72395;56.880;60.614;2023-11-19T13:33:40;7.80;;;2.58;;
81967;SDS011;72395;56.880;60.614;2023-11-19T13:36:07;7.28;;;1.70;;
81967;SDS011;72395;56.880;60.614;2023-11-19T13:38:36;3.53;;;2.00;;
81967;SDS011;72395;56.880;60.614;2023-11-19T13:41:03;4.65;;;2.40;;
81967;SDS011;72395;56.880;60.614;2023-11-19T13:43:35;9.32;;;2.33;;
81967;SDS011;72395;56.880;60.614;2023-11-19T13:46:01;6.60;;;2.78;;
81967;SDS011;72395;56.880;60.614;2023-11-19T13:48:28;4.75;;;2.28;;
81967;SDS011;72395;56.880;60.614;2023-11-19T13:50:55;8.93;;;3.00;;
81967;SDS011;72395;56.880;60.614;2023-11-19T13:53:22;7.78;;;3.17;;
81967;SDS011;72395;56.880;60.614;2023-11-19T13:55:52;4.25;;;2.22;;
81967;SDS011;72395;56.880;60.614;2023-11-19T13:58:19;9.07;;;1.90;;
81967;SDS011;72395;56.880;60.614;2023-11-19T14:00:45;9.55;;;2.40;;
81967;SDS011;72395;56.880;60.614;2023-11-19T14:03:12;6.95;;;2.15;;
81967;SDS011;72395;56.880;60.614;2023-11-19T14:05:39;5.47;;;2.45;;
81967;SDS011;72395;56.880;60.614;2023-11-19T14:08:07;3.85;;;1.35;;
81967;SDS011;72395;56.880;60.614;2023-11-19T14:10:39;5.10;;;1.80;;
81967;SDS011;72395;56.880;60.614;2023-11-19T14:13:07;3.88;;;1.95;;
81967;SDS011;72395;56.880;60.614;2023-11-19T14:15:33;5.32;;;1.90;;
81967;SDS011;72395;56.880;60.614;2023-11-19T14:18:01;6.78;;;1.77;;
81967;SDS011;72395;56.880;60.614;2023-11-19T14:20:28;5.30;;;2.28;;
81967;SDS011;72395;56.880;60.614;2023-11-19T14:22:56;5.10;;;1.60;;
81967;SDS011;72395;56.880;60.614;2023-11-19T14:25:23;2.65;;;1.83;;
81967;SDS011;72395;56.880;60.614;2023-11-19T14:27:50;2.70;;;1.35;;
81967;SDS011;72395;56.880;60.614;2023-11-19T14:30:17;7.53;;;2.05;;
81967;SDS011;72395;56.880;60.614;2023-11-19T14:32:44;4.50;;;1.98;;
81967;SDS011;72395;56.880;60.614;2023-11-19T14:35:12;7.32;;;2.50;;
81967;SDS011;72395;56.880;60.614;2023-11-19T14:37:39;4.30;;;2.10;;
81967;SDS011;72395;56.880;60.614;2023-11-19T14:40:05;6.65;;;2.33;;
81967;SDS011;72395;56.880;60.614;2023-11-19T14:42:37;4.15;;;2.22;;
81967;SDS011;72395;56.880;60.614;2023-11-19T14:45:05;6.25;;;2.35;;
81967;SDS011;72395;56.880;60.614;2023-11-19T14:47:33;6.85;;;1.73;;
81967;SDS011;72395;56.880;60.614;2023-11-19T14:49:59;8.38;;;2.17;;
81967;SDS011;72395;56.880;60.614;2023-11-19T14:52:26;2.85;;;1.63;;
81967;SDS011;72395;56.880;60.614;2023-11-19T14:54:53;5.40;;;2.03;;
81967;SDS011;72395;56.880;60.614;2023-11-19T14:57:20;4.15;;;2.60;;
81967;SDS011;72395;56.880;60.614;2023-11-19T14:59:47;4.00;;;1.98;;
81967;SDS011;72395;56.880;60.614;2023-11-19T15:02:13;3.13;;;2.05;;